Time;durP1;ratioP1;P1;durP2;ratioP2;P2;SDS_P1;SDS_P2;PMS_P1;PMS_P2;Temp;Humidity;BMP_temperature;BMP_pressure;BME280_temperature;BME280_humidity;BME280_pressure;Samples;Min_cycle;Max_cycle;Signal;HPM_P1;HPM_P2
2023/01/10 00:01:37;;;;;;;5.10;0.80;;;;;;;-0.09;48.66;101097.98;104815;1265;62575;-61
2023/01/10 00:04:04;;;;;;;5.30;1.40;;;;;;;-0.09;48.76;101102.30;104612;1269;74368;-61
2023/01/10 00:06:31;;;;;;;6.10;1.50;;;;;;;-0.08;48.73;101111.41;104365;1266;72476;-61
2023/01/10 00:08:59;;;;;;;7.10;1.20;;;;;;;-0.06;48.65;101107.75;104564;1266;73901;-61
2023/01/10 00:14:12;;;;;;;8.90;1.90;;;;;;;-0.12;48.29;101105.29;104469;1272;59661;-61
2023/01/10 00:16:41;;;;;;;4.20;1.10;;;;;;;-0.18;48.47;101100.08;104915;1263;75273;-62
2023/01/10 00:19:09;;;;;;;4.50;1.30;;;;;;;-0.21;48.45;101101.20;104558;1271;72766;-62
2023/01/10 00:21:36;;;;;;;5.00;1.50;;;;;;;-0.21;48.47;101109.83;104577;1269;72968;-61
2023/01/10 00:27:01;;;;;;;5.80;1.70;;;;;;;-0.26;48.42;101114.06;104314;1266;59744;-61
2023/01/10 00:29:32;;;;;;;6.40;1.70;;;;;;;-0.27;48.38;101117.36;104639;1271;75152;-60
2023/01/10 00:31:59;;;;;;;16.00;2.80;;;;;;;-0.28;48.45;101117.20;104583;1267;71401;-60
2023/01/10 00:34:27;;;;;;;5.90;1.80;;;;;;;-0.29;48.39;101123.09;104511;1266;73812;-61
2023/01/10 00:36:54;;;;;;;7.20;1.70;;;;;;;-0.28;48.60;101126.88;104739;1264;62469;-61
2023/01/10 00:39:24;;;;;;;8.30;1.70;;;;;;;-0.27;48.52;101127.20;104414;1271;62031;-61
2023/01/10 00:44:39;;;;;;;7.50;2.30;;;;;;;-0.27;48.60;101122.55;104528;1265;62767;-62
2023/01/10 00:47:06;;;;;;;3.70;1.50;;;;;;;-0.28;48.66;101118.94;104522;1271;73582;-62
2023/01/10 00:49:33;;;;;;;10.50;2.20;;;;;;;-0.31;48.77;101118.83;104442;1269;62752;-62
2023/01/10 00:52:00;;;;;;;7.90;2.00;;;;;;;-0.33;48.72;101118.55;104543;1266;62444;-61
2023/01/10 00:54:27;;;;;;;4.70;1.20;;;;;;;-0.35;48.90;101117.05;104486;1271;74917;-61
2023/01/10 00:56:54;;;;;;;5.00;1.40;;;;;;;-0.35;49.05;101119.45;104483;1266;72139;-61
2023/01/10 00:59:21;;;;;;;8.90;1.70;;;;;;;-0.34;48.93;101117.52;104501;1271;75143;-60
2023/01/10 01:01:51;;;;;;;8.20;2.10;;;;;;;-0.34;48.69;101118.73;104439;1265;62490;-61
2023/01/10 01:04:18;;;;;;;6.30;1.40;;;;;;;-0.33;48.64;101121.31;104568;1265;61475;-61
2023/01/10 01:06:49;;;;;;;25.50;2.80;;;;;;;-0.34;48.75;101119.78;104471;1266;75730;-61
2023/01/10 01:09:16;;;;;;;13.00;2.10;;;;;;;-0.35;48.99;101122.39;104970;1265;71430;-62
2023/01/10 01:11:43;;;;;;;7.80;1.40;;;;;;;-0.37;49.04;101120.86;104549;1266;74842;-61
2023/01/10 01:14:11;;;;;;;7.80;1.60;;;;;;;-0.38;49.19;101120.02;104468;1270;62498;-61
2023/01/10 01:16:38;;;;;;;7.00;1.40;;;;;;;-0.38;49.34;101121.23;105047;1259;61435;-62
2023/01/10 01:19:05;;;;;;;6.40;1.90;;;;;;;-0.39;49.40;101116.42;104920;1259;75252;-62
2023/01/10 01:21:32;;;;;;;19.50;3.40;;;;;;;-0.39;49.53;101112.64;105045;1260;72239;-62
2023/01/10 01:23:59;;;;;;;11.70;1.80;;;;;;;-0.41;49.41;101111.64;104884;1263;74862;-61
2023/01/10 01:26:26;;;;;;;5.50;1.30;;;;;;;-0.43;49.38;101107.39;104851;1265;60958;-61
2023/01/10 01:28:53;;;;;;;8.10;2.50;;;;;;;-0.44;49.57;101106.05;105078;1263;62223;-60
2023/01/10 01:31:20;;;;;;;8.60;1.70;;;;;;;-0.46;49.90;101105.04;104950;1259;75066;-60
2023/01/10 01:33:47;;;;;;;7.40;3.00;;;;;;;-0.49;49.99;101108.21;104854;1263;72530;-61
2023/01/10 01:36:15;;;;;;;6.20;2.60;;;;;;;-0.51;50.19;101107.93;105135;1259;74881;-62
2023/01/10 01:38:42;;;;;;;7.00;1.00;;;;;;;-0.51;50.39;101102.05;104888;1263;62221;-61
2023/01/10 01:44:05;;;;;;;6.60;2.60;;;;;;;-0.52;50.67;101093.30;105001;1259;65497;-61
2023/01/10 01:46:34;;;;;;;7.50;1.60;;;;;;;-0.53;50.89;101086.25;105182;1259;72453;-61
2023/01/10 01:49:03;;;;;;;5.40;2.00;;;;;;;-0.53;51.03;101084.70;105284;1263;73521;-60
2023/01/10 01:51:30;;;;;;;11.50;2.60;;;;;;;-0.53;51.18;101079.70;104920;1262;62791;-61
2023/01/10 01:54:06;;;;;;;6.00;1.70;;;;;;;-0.53;51.09;101080.74;104866;1265;61038;-62
2023/01/10 01:56:44;;;;;;;;;;;;;;;-0.49;51.06;101082.89;104907;1263;75180;-61
2023/01/10 01:59:16;;;;;;;2.60;0.80;;;;;;;-0.50;51.22;101093.94;104954;1263;72414;-62
2023/01/10 02:01:45;;;;;;;7.70;2.90;;;;;;;-0.52;51.35;101095.36;104961;1262;73569;-61
2023/01/10 02:04:16;;;;;;;5.20;1.60;;;;;;;-0.53;51.51;101092.98;104901;1265;61173;-61
2023/01/10 02:06:45;;;;;;;10.60;3.20;;;;;;;-0.56;51.41;101098.02;104855;1263;61381;-62
2023/01/10 02:09:35;;;;;;;8.10;2.60;;;;;;;-0.59;51.62;101099.80;104932;1263;73749;-61
2023/01/10 02:12:02;;;;;;;5.20;1.00;;;;;;;-0.59;51.68;101097.41;104915;1267;72535;-62
2023/01/10 02:14:30;;;;;;;4.70;1.50;;;;;;;-0.61;51.84;101101.41;104988;1265;75423;-62
2023/01/10 02:16:57;;;;;;;5.50;1.20;;;;;;;-0.62;51.93;101104.02;104987;1260;62219;-61
2023/01/10 02:19:37;;;;;;;4.80;1.00;;;;;;;-0.65;52.10;101105.98;104836;1265;61172;-61
2023/01/10 02:22:42;;;;;;;5.90;2.10;;;;;;;-0.69;52.35;101105.22;104872;1259;75236;-63
2023/01/10 02:25:40;;;;;;;6.70;1.00;;;;;;;-0.71;52.60;101104.23;105070;1264;62711;-61
2023/01/10 02:28:16;;;;;;;7.80;2.00;;;;;;;-0.75;52.55;101105.52;104923;1263;66181;-63
2023/01/10 02:31:19;;;;;;;4.80;1.00;;;;;;;-0.69;52.62;101104.02;104830;1264;61498;-61
2023/01/10 02:33:52;;;;;;;8.70;3.40;;;;;;;-0.66;52.46;101103.95;105075;1272;60710;-61
2023/01/10 02:36:31;;;;;;;7.30;1.30;;;;;;;-0.65;52.00;101104.09;105042;1259;74513;-61
2023/01/10 02:39:16;;;;;;;6.50;2.10;;;;;;;-0.65;52.00;101098.58;104851;1263;63590;-62
2023/01/10 02:41:47;;;;;;;8.40;2.00;;;;;;;-0.67;52.05;101096.54;104960;1263;66211;-61
2023/01/10 04:01:16;;;;;;;5.90;1.60;;;;;;;-0.53;53.16;101160.17;103069;1283;604325;-49
2023/01/10 04:03:43;;;;;;;5.80;1.70;;;;;;;-0.31;52.48;101168.84;104796;1269;73819;-49
2023/01/10 04:06:28;;;;;;;6.60;1.50;;;;;;;-0.39;52.57;101173.50;104966;1269;59176;-50
2023/01/10 04:08:54;;;;;;;5.30;1.70;;;;;;;-0.47;52.72;101178.33;105062;1268;73357;-50
2023/01/10 04:11:21;;;;;;;3.70;1.30;;;;;;;-0.53;52.87;101179.67;104989;1269;71027;-50
2023/01/10 04:13:50;;;;;;;9.60;1.80;;;;;;;-0.58;53.09;101184.77;105145;1269;73699;-49
2023/01/10 04:16:17;;;;;;;4.90;1.40;;;;;;;-0.65;53.19;101190.59;104974;1264;61259;-49
2023/01/10 04:18:44;;;;;;;6.70;2.20;;;;;;;-0.71;53.22;101187.27;105022;1261;61153;-50
2023/01/10 04:21:11;;;;;;;6.50;1.90;;;;;;;-0.78;53.24;101189.30;105006;1264;72989;-50
2023/01/10 04:23:38;;;;;;;7.70;1.70;;;;;;;-0.85;53.37;101188.06;105134;1266;71022;-50
2023/01/10 04:26:06;;;;;;;5.20;1.70;;;;;;;-0.89;53.48;101190.91;105126;1266;73613;-50
2023/01/10 04:28:33;;;;;;;4.80;1.70;;;;;;;-0.94;53.71;101191.34;105041;1266;61000;-49
2023/01/10 04:31:01;;;;;;;4.80;1.20;;;;;;;-0.91;53.57;101183.71;105049;1264;61014;-49
2023/01/10 04:33:28;;;;;;;5.40;1.20;;;;;;;-0.95;53.69;101186.72;105045;1266;74007;-50
2023/01/10 04:35:55;;;;;;;6.20;1.60;;;;;;;-1.05;53.97;101183.98;105134;1264;71216;-50
2023/01/10 04:38:22;;;;;;;6.80;1.60;;;;;;;-1.11;54.18;101177.73;105125;1266;72695;-50
2023/01/10 04:40:53;;;;;;;7.10;3.10;;;;;;;-1.17;54.38;101188.33;104991;1266;61325;-49
2023/01/10 04:43:20;;;;;;;5.00;1.90;;;;;;;-1.22;54.50;101188.59;104992;1266;59723;-50
2023/01/10 04:45:47;;;;;;;4.80;1.50;;;;;;;-1.25;54.74;101195.20;104998;1266;74007;-51
2023/01/10 04:48:15;;;;;;;4.50;1.60;;;;;;;-1.28;54.78;101197.82;104981;1265;71281;-50
2023/01/10 04:50:42;;;;;;;7.80;1.60;;;;;;;-1.31;54.84;101201.48;105126;1266;73775;-49
2023/01/10 04:53:09;;;;;;;5.00;1.60;;;;;;;-1.35;54.83;101209.82;105012;1266;61339;-51
2023/01/10 04:55:36;;;;;;;9.10;2.30;;;;;;;-1.38;54.99;101213.33;105013;1266;61061;-51
2023/01/10 04:58:03;;;;;;;5.80;1.70;;;;;;;-1.41;55.20;101215.77;104987;1260;73191;-51
2023/01/10 05:15:56;;;;;;;6.20;2.30;;;;;;;-1.37;55.23;101227.05;102331;1293;603328;-50
2023/01/10 05:18:24;;;;;;;9.30;3.30;;;;;;;-1.18;54.66;101234.67;104635;1272;93884;-50
2023/01/10 05:20:51;;;;;;;9.60;2.50;;;;;;;-1.29;54.61;101237.45;104641;1270;62456;-50
2023/01/10 05:23:18;;;;;;;7.00;1.80;;;;;;;-1.43;54.82;101238.02;104785;1266;73256;-49
2023/01/10 05:25:45;;;;;;;7.80;2.70;;;;;;;-1.56;55.12;101240.81;104683;1265;72749;-50
2023/01/10 05:28:12;;;;;;;5.00;1.90;;;;;;;-1.66;55.35;101240.61;104691;1266;75053;-53
2023/01/10 05:30:39;;;;;;;6.10;1.70;;;;;;;-1.74;55.43;101244.88;104735;1265;62504;-50
2023/01/10 05:33:06;;;;;;;7.40;2.80;;;;;;;-1.85;55.71;101247.77;104623;1266;62439;-50
2023/01/10 05:35:33;;;;;;;5.10;1.60;;;;;;;-1.95;56.15;101248.80;104622;1266;74343;-50
2023/01/10 05:38:00;;;;;;;6.80;1.90;;;;;;;-2.05;56.42;101253.58;104758;1266;72178;-51
2023/01/10 05:40:27;;;;;;;6.80;2.50;;;;;;;-2.13;56.67;101251.95;104601;1266;74909;-51
2023/01/10 05:42:54;;;;;;;12.40;3.30;;;;;;;-2.17;56.92;101253.22;104643;1266;62275;-50
2023/01/10 05:45:21;;;;;;;8.70;2.80;;;;;;;-2.22;56.93;101253.45;104648;1266;62416;-51
2023/01/10 05:47:48;;;;;;;13.40;3.90;;;;;;;-2.29;57.22;101258.18;104653;1265;75121;-51
2023/01/10 05:50:15;;;;;;;6.90;2.70;;;;;;;-2.26;57.20;101261.08;104594;1266;72337;-51
2023/01/10 05:52:44;;;;;;;7.90;2.20;;;;;;;-2.20;57.25;101260.30;104586;1266;73754;-51
2023/01/10 05:55:11;;;;;;;7.90;2.70;;;;;;;-2.13;57.25;101259.86;104676;1266;63250;-51
2023/01/10 05:57:38;;;;;;;7.50;2.10;;;;;;;-2.06;57.24;101268.36;104574;1271;60712;-51
2023/01/10 06:00:06;;;;;;;11.50;3.80;;;;;;;-1.99;56.98;101271.54;104768;1268;75288;-51
2023/01/10 06:02:37;;;;;;;12.60;2.40;;;;;;;-1.96;56.78;101274.94;104621;1270;72916;-51
2023/01/10 06:05:04;;;;;;;11.50;2.40;;;;;;;-1.96;56.86;101274.25;104622;1270;73505;-51
2023/01/10 06:07:31;;;;;;;10.50;3.40;;;;;;;-1.94;56.75;101279.56;104722;1266;61951;-51
2023/01/10 06:09:58;;;;;;;7.90;2.70;;;;;;;-2.11;57.00;101277.89;104530;1266;62387;-51
2023/01/10 06:12:25;;;;;;;13.30;4.90;;;;;;;-2.21;57.23;101280.61;104440;1268;74930;-51
2023/01/10 06:14:52;;;;;;;9.80;1.90;;;;;;;-2.28;57.16;101285.33;104700;1265;72887;-51
2023/01/10 06:17:19;;;;;;;7.80;3.50;;;;;;;-2.30;57.24;101290.34;104603;1266;74853;-51
2023/01/10 06:19:46;;;;;;;9.10;2.80;;;;;;;-2.36;57.34;101291.27;104658;1267;61916;-51
2023/01/10 06:22:13;;;;;;;13.20;3.90;;;;;;;-2.41;57.38;101294.27;104815;1266;62106;-51
2023/01/10 06:24:41;;;;;;;11.40;3.20;;;;;;;-2.48;57.45;101289.70;104803;1268;75007;-51
2023/01/10 06:27:08;;;;;;;8.30;1.90;;;;;;;-2.54;57.54;101291.65;104625;1271;70993;-51
2023/01/10 06:29:35;;;;;;;8.70;2.70;;;;;;;-2.58;57.58;101293.08;104578;1266;73448;-51
2023/01/10 06:32:02;;;;;;;7.60;2.50;;;;;;;-2.65;57.56;101299.33;104620;1269;61777;-51
2023/01/10 06:34:29;;;;;;;6.90;2.30;;;;;;;-2.70;57.53;101306.77;104556;1266;62422;-51
2023/01/10 06:36:57;;;;;;;9.40;3.10;;;;;;;-2.55;57.33;101308.15;104568;1266;75353;-52
2023/01/10 06:39:24;;;;;;;9.80;2.20;;;;;;;-2.64;57.44;101306.70;104625;1266;72396;-51
2023/01/10 06:41:51;;;;;;;4.90;2.30;;;;;;;-2.78;57.72;101307.20;104755;1268;74649;-51
2023/01/10 06:44:18;;;;;;;9.10;3.20;;;;;;;-2.82;57.86;101300.53;104749;1266;62455;-51
2023/01/10 06:46:45;;;;;;;5.60;1.90;;;;;;;-2.83;57.87;101306.02;104590;1266;62430;-51
2023/01/10 06:49:11;;;;;;;11.40;2.70;;;;;;;-2.83;57.84;101304.32;104652;1266;74030;-51
2023/01/10 06:51:38;;;;;;;7.30;2.90;;;;;;;-2.85;57.75;101306.74;104532;1266;72465;-51
2023/01/10 06:54:05;;;;;;;6.10;2.00;;;;;;;-2.88;57.77;101304.53;105422;1253;74597;-51
2023/01/10 06:56:32;;;;;;;6.90;2.30;;;;;;;-2.87;57.99;101301.10;105405;1260;61560;-51
2023/01/10 06:58:59;;;;;;;13.10;2.70;;;;;;;-2.85;57.94;101306.06;105436;1253;62137;-51
2023/01/10 07:01:26;;;;;;;10.30;2.40;;;;;;;-2.82;58.00;101311.69;105551;1253;74743;-52
2023/01/10 07:03:54;;;;;;;8.00;3.80;;;;;;;-2.79;57.74;101322.33;105279;1259;72483;-51
2023/01/10 07:06:21;;;;;;;11.00;2.80;;;;;;;-2.80;57.70;101322.49;105357;1253;74816;-51
2023/01/10 07:08:48;;;;;;;18.40;4.70;;;;;;;-2.86;57.74;101324.79;105424;1253;62437;-49
2023/01/10 07:11:16;;;;;;;8.40;3.00;;;;;;;-2.87;57.90;101326.17;105297;1258;62474;-50
2023/01/10 07:13:43;;;;;;;7.70;2.10;;;;;;;-2.87;57.68;101334.23;105468;1259;75250;-50
2023/01/10 07:16:12;;;;;;;6.80;3.20;;;;;;;-2.87;57.65;101340.59;105397;1253;72730;-50
2023/01/10 07:18:40;;;;;;;8.60;2.90;;;;;;;-2.86;57.41;101342.30;105620;1253;73565;-50
2023/01/10 07:21:07;;;;;;;7.40;3.30;;;;;;;-2.88;57.36;101345.40;105541;1259;61408;-50
2023/01/10 07:23:35;;;;;;;7.90;2.90;;;;;;;-2.88;57.53;101346.09;105593;1259;62455;-51
2023/01/10 07:26:03;;;;;;;6.10;2.60;;;;;;;-2.88;57.40;101349.70;105478;1259;74425;-52
2023/01/10 07:28:33;;;;;;;6.80;3.20;;;;;;;-2.88;57.31;101349.19;105493;1253;72323;-51
2023/01/10 07:31:01;;;;;;;7.80;2.60;;;;;;;-2.90;57.35;101350.73;105481;1259;74817;-51
2023/01/10 07:33:28;;;;;;;5.90;2.20;;;;;;;-2.91;57.35;101350.07;105668;1254;62340;-50
2023/01/10 07:35:55;;;;;;;7.10;2.90;;;;;;;-2.89;57.47;101352.96;105492;1259;61469;-51
2023/01/10 07:38:22;;;;;;;9.00;3.00;;;;;;;-2.86;57.48;101350.02;105594;1253;75767;-52
2023/01/10 07:40:49;;;;;;;9.60;2.90;;;;;;;-2.83;57.53;101347.94;105525;1253;72311;-51
2023/01/10 07:44:40;;;;;;;8.10;3.50;;;;;;;-2.84;57.58;101350.52;101855;1293;601233;-60
2023/01/10 07:47:07;;;;;;;9.80;4.10;;;;;;;-2.73;57.48;101355.23;106102;1267;59244;-61
2023/01/10 07:49:34;;;;;;;6.50;2.60;;;;;;;-2.68;57.45;101353.80;105927;1267;62156;-60
2023/01/10 07:52:01;;;;;;;13.40;4.50;;;;;;;-2.64;57.35;101350.33;104476;1270;74319;-61
2023/01/10 07:54:28;;;;;;;7.80;3.00;;;;;;;-2.61;56.97;101357.71;104623;1267;72881;-61
2023/01/10 07:56:55;;;;;;;8.70;3.60;;;;;;;-2.41;56.65;101360.25;104532;1270;74825;-61
2023/01/10 07:59:22;;;;;;;11.00;3.90;;;;;;;-2.23;55.86;101366.56;104677;1264;172773;-61
2023/01/10 08:01:49;;;;;;;9.50;3.90;;;;;;;-2.16;55.50;101363.40;104737;1264;62485;-61
2023/01/10 08:04:16;;;;;;;10.20;3.80;;;;;;;-2.10;54.99;101359.89;104928;1268;72974;-62
2023/01/10 08:06:43;;;;;;;8.30;2.80;;;;;;;-2.06;54.94;101357.09;104706;1264;72737;-62
2023/01/10 08:09:10;;;;;;;6.90;3.10;;;;;;;-2.03;54.45;101358.42;104602;1264;74606;-63
2023/01/10 08:11:37;;;;;;;9.70;3.60;;;;;;;-2.02;54.52;101361.69;104938;1268;62495;-61
2023/01/10 08:14:07;;;;;;;9.30;4.00;;;;;;;-2.00;54.26;101366.99;104693;1269;62784;-61
2023/01/10 08:16:34;;;;;;;15.20;4.10;;;;;;;-1.97;54.33;101377.28;105194;1264;73750;-64
2023/01/10 08:19:01;;;;;;;12.80;3.30;;;;;;;-1.95;54.00;101373.12;104859;1263;72785;-62
2023/01/10 08:21:28;;;;;;;12.30;4.00;;;;;;;-1.96;53.87;101376.05;104809;1264;74904;-62
2023/01/10 08:23:55;;;;;;;12.80;5.60;;;;;;;-1.97;54.01;101383.98;104886;1264;62511;-63
2023/01/10 08:26:21;;;;;;;7.40;3.30;;;;;;;-1.94;53.82;101382.23;104602;1264;60945;-61
2023/01/10 08:28:49;;;;;;;7.10;3.60;;;;;;;-1.93;53.58;101387.20;104743;1268;75343;-62
2023/01/10 08:31:16;;;;;;;12.00;3.10;;;;;;;-1.91;53.60;101384.41;104712;1269;71181;-62
2023/01/10 08:33:43;;;;;;;9.50;2.90;;;;;;;-1.83;53.68;101380.02;104998;1267;73698;-61
2023/01/10 08:36:15;;;;;;;11.10;3.60;;;;;;;-1.73;53.64;101375.77;104699;1263;62552;-61
2023/01/10 08:38:42;;;;;;;7.40;2.90;;;;;;;-1.62;53.43;101376.65;104847;1269;61830;-62
2023/01/10 08:41:09;;;;;;;10.70;2.40;;;;;;;-1.54;53.28;101379.12;104885;1264;74166;-62
2023/01/10 08:43:35;;;;;;;9.50;3.30;;;;;;;-1.44;53.03;101371.94;104723;1264;72446;-61
2023/01/10 08:46:02;;;;;;;7.50;3.20;;;;;;;-1.38;52.58;101376.66;104602;1269;74765;-62
2023/01/10 08:48:32;;;;;;;6.70;2.50;;;;;;;-1.32;52.23;101375.54;104857;1270;61535;-61
2023/01/10 08:51:04;;;;;;;9.90;3.20;;;;;;;-1.27;52.17;101377.19;104861;1262;62756;-61
2023/01/10 08:53:31;;;;;;;8.00;2.80;;;;;;;-1.23;51.89;101371.62;104848;1264;75314;-61
2023/01/10 08:55:58;;;;;;;8.10;2.00;;;;;;;-1.20;51.62;101367.96;104769;1264;72431;-60
2023/01/10 08:58:25;;;;;;;9.90;2.80;;;;;;;-1.19;51.58;101363.29;104560;1265;74860;-61
2023/01/10 09:00:54;;;;;;;11.60;3.40;;;;;;;-1.14;51.47;101361.67;105045;1268;61373;-61
2023/01/10 09:03:22;;;;;;;7.10;2.60;;;;;;;-1.07;51.36;101358.45;104607;1269;61386;-61
2023/01/10 09:05:49;;;;;;;8.80;3.10;;;;;;;-1.00;51.14;101360.40;104673;1264;74095;-61
2023/01/10 09:08:16;;;;;;;6.90;3.40;;;;;;;-0.96;50.64;101357.23;104705;1264;71124;-62
2023/01/10 09:10:46;;;;;;;7.40;3.00;;;;;;;-0.93;50.26;101356.14;104831;1269;74794;-61
2023/01/10 09:13:14;;;;;;;17.00;2.00;;;;;;;-0.92;50.02;101356.83;104665;1268;62807;-61
2023/01/10 09:15:42;;;;;;;10.10;3.00;;;;;;;-0.90;49.76;101352.67;104808;1269;62636;-62
2023/01/10 09:18:10;;;;;;;6.80;2.40;;;;;;;-0.91;49.73;101349.77;104682;1264;74054;-62
2023/01/10 09:20:38;;;;;;;4.80;2.30;;;;;;;-0.90;49.74;101343.70;105053;1264;72527;-61
2023/01/10 09:23:07;;;;;;;10.30;4.50;;;;;;;-0.86;49.85;101343.81;104765;1269;75130;-62
2023/01/10 09:25:34;;;;;;;7.40;2.40;;;;;;;-0.79;49.85;101352.46;104623;1264;62451;-62
2023/01/10 09:28:02;;;;;;;5.80;1.90;;;;;;;-0.73;49.27;101352.38;104965;1264;61368;-62
2023/01/10 09:30:29;;;;;;;8.70;2.80;;;;;;;-0.73;48.94;101355.64;104663;1264;73991;-61
2023/01/10 09:32:56;;;;;;;10.30;2.80;;;;;;;-0.75;49.22;101350.86;104862;1264;72008;-62
2023/01/10 09:35:23;;;;;;;10.30;3.20;;;;;;;-0.76;49.10;101352.76;104800;1268;74066;-61
2023/01/10 09:37:57;;;;;;;5.40;2.20;;;;;;;-0.74;49.23;101350.14;105380;1260;62348;-61
2023/01/10 09:40:44;;;;;;;6.20;2.90;;;;;;;-0.72;49.19;101353.56;105060;1260;62434;-62
2023/01/10 09:43:41;;;;;;;9.10;2.80;;;;;;;-0.69;49.04;101356.27;105202;1260;75183;-60
2023/01/10 09:46:11;;;;;;;7.50;2.80;;;;;;;-0.67;48.68;101360.02;105659;1257;72356;-60
2023/01/10 09:49:03;;;;;;;7.40;2.80;;;;;;;-0.66;48.63;101371.02;105171;1258;74030;-61
2023/01/10 09:51:38;;;;;;;13.40;3.40;;;;;;;-0.63;48.85;101374.42;105192;1257;62641;-62
2023/01/10 09:54:10;;;;;;;10.40;3.20;;;;;;;-0.57;48.88;101384.83;105321;1261;61320;-62
2023/01/10 09:56:39;;;;;;;9.40;3.60;;;;;;;-0.49;48.75;101382.10;105204;1257;73802;-61
2023/01/10 09:59:18;;;;;;;8.10;2.90;;;;;;;-0.44;48.66;101382.37;105088;1257;72454;-60
2023/01/10 10:01:46;;;;;;;11.90;3.40;;;;;;;-0.42;48.31;101379.23;105153;1260;74909;-60
2023/01/10 10:04:27;;;;;;;7.00;2.80;;;;;;;-0.47;48.09;101380.86;105984;1257;62410;-61
2023/01/10 10:06:54;;;;;;;11.70;2.90;;;;;;;-0.54;48.11;101380.81;105766;1266;62256;-62
2023/01/10 10:09:27;;;;;;;8.10;2.70;;;;;;;-0.60;48.08;101383.85;105177;1257;73329;-62
2023/01/10 10:12:16;;;;;;;10.90;2.30;;;;;;;-0.66;48.11;101386.38;105237;1262;72732;-62
2023/01/10 10:15:06;;;;;;;6.20;2.30;;;;;;;-0.75;48.38;101374.46;107411;1260;73831;-61
2023/01/10 10:18:02;;;;;;;5.80;2.50;;;;;;;-0.80;48.64;101373.17;105694;1262;62750;-60
2023/01/10 10:20:43;;;;;;;6.60;2.30;;;;;;;-0.81;48.76;101369.92;105104;1263;62940;-61
2023/01/10 10:23:40;;;;;;;13.10;3.30;;;;;;;-0.81;48.75;101366.29;104993;1261;74829;-61
2023/01/10 10:26:30;;;;;;;6.20;2.40;;;;;;;-0.78;49.11;101362.29;106410;1261;71658;-60
2023/01/10 10:29:18;;;;;;;10.20;3.20;;;;;;;-0.78;49.04;101366.41;105138;1258;74836;-61
2023/01/10 10:31:52;;;;;;;11.80;2.70;;;;;;;-0.78;49.05;101364.35;105156;1263;62241;-61
2023/01/10 10:34:35;;;;;;;8.60;3.30;;;;;;;-0.76;49.18;101363.98;105342;1257;61867;-62
2023/01/10 10:37:11;;;;;;;6.10;2.20;;;;;;;-0.74;48.95;101364.79;105193;1257;75298;-62
2023/01/10 10:39:43;;;;;;;9.80;3.70;;;;;;;-0.75;49.21;101361.88;105364;1257;72347;-62
2023/01/10 10:42:12;;;;;;;7.70;2.40;;;;;;;-0.70;49.42;101362.67;105245;1262;72458;-64
2023/01/10 10:44:54;;;;;;;7.70;3.00;;;;;;;-0.80;49.70;101365.95;105219;1263;62805;-62
2023/01/10 10:47:22;;;;;;;11.50;1.80;;;;;;;-1.00;50.29;101364.89;105481;1257;61236;-61
2023/01/10 10:50:00;;;;;;;8.70;2.60;;;;;;;-1.00;49.84;101362.47;105406;1261;75179;-61
2023/01/10 10:52:33;;;;;;;7.10;2.50;;;;;;;-1.00;49.86;101367.30;105399;1260;72424;-61
2023/01/10 10:55:05;;;;;;;6.60;2.40;;;;;;;-1.01;49.80;101366.80;105520;1260;74788;-62
2023/01/10 10:57:33;;;;;;;8.30;2.50;;;;;;;-1.00;50.07;101362.65;105196;1263;61618;-61
2023/01/10 11:00:01;;;;;;;8.10;1.70;;;;;;;-0.96;50.14;101357.91;105208;1261;61487;-60
2023/01/10 11:02:30;;;;;;;7.00;2.30;;;;;;;-0.90;50.16;101351.29;105440;1258;74240;-61
2023/01/10 11:05:00;;;;;;;9.00;2.80;;;;;;;-0.86;50.09;101344.52;105361;1263;72446;-61
2023/01/10 11:07:31;;;;;;;5.60;2.60;;;;;;;-0.82;50.14;101333.39;105027;1263;73919;-61
2023/01/10 11:12:29;;;;;;;8.50;2.10;;;;;;;-0.70;49.75;101336.48;105173;1263;62330;-61
2023/01/10 11:14:57;;;;;;;9.40;2.50;;;;;;;-0.65;49.69;101337.59;105181;1260;75153;-61
2023/01/10 11:17:26;;;;;;;13.80;3.00;;;;;;;-0.61;49.70;101341.98;105226;1256;72426;-61
2023/01/10 11:20:04;;;;;;;15.70;3.20;;;;;;;-0.56;49.55;101343.63;105140;1260;73846;-61
2023/01/10 11:22:42;;;;;;;9.40;2.70;;;;;;;-0.54;49.41;101349.98;105417;1260;62338;-61
2023/01/10 11:25:16;;;;;;;9.30;1.80;;;;;;;-0.53;49.38;101358.73;105183;1258;62440;-61
2023/01/10 11:27:50;;;;;;;6.50;2.30;;;;;;;-0.53;49.48;101363.06;105252;1263;75357;-61
2023/01/10 11:30:25;;;;;;;7.80;2.90;;;;;;;-0.53;49.33;101360.48;105606;1257;72493;-61
2023/01/10 11:32:57;;;;;;;10.40;2.40;;;;;;;-0.55;49.31;101360.15;105173;1258;74813;-61
2023/01/10 11:35:26;;;;;;;7.50;2.60;;;;;;;-0.56;49.30;101362.75;105552;1260;61729;-61
2023/01/10 14:09:43;;;;;;;7.40;3.40;;;;;;;-0.90;48.04;101442.90;102972;1287;605200;-56
2023/01/10 14:12:28;;;;;;;7.40;2.30;;;;;;;-0.57;47.36;101439.98;104788;1268;82124;-56
2023/01/10 14:15:00;;;;;;;7.40;1.50;;;;;;;-0.58;47.27;101442.42;104719;1269;59272;-55
2023/01/10 14:17:34;;;;;;;9.90;2.60;;;;;;;-0.60;47.15;101447.61;104831;1272;74289;-55
2023/01/10 14:20:13;;;;;;;7.50;2.90;;;;;;;-0.63;46.98;101447.33;104647;1272;71348;-55
2023/01/10 14:22:40;;;;;;;6.80;2.50;;;;;;;-0.67;46.89;101445.16;104724;1272;74147;-56
2023/01/10 14:41:38;;;;;;;9.90;3.60;;;;;;;-0.42;46.05;101436.44;102299;1295;605025;-56
2023/01/10 14:44:12;;;;;;;11.90;3.20;;;;;;;-0.14;45.19;101438.39;104616;1264;89443;-55
2023/01/10 14:46:54;;;;;;;5.50;2.40;;;;;;;-0.21;45.16;101441.77;104736;1266;59278;-55
2023/01/10 14:49:34;;;;;;;9.50;3.60;;;;;;;-0.29;45.04;101448.65;104942;1267;73203;-55
2023/01/10 14:52:12;;;;;;;7.90;2.70;;;;;;;-0.38;44.77;101454.15;104904;1264;71201;-56
2023/01/10 14:54:40;;;;;;;34.30;4.30;;;;;;;-0.46;44.77;101453.59;104865;1267;74002;-56
2023/01/10 14:57:18;;;;;;;9.90;3.10;;;;;;;-0.51;44.68;101455.75;104976;1264;61593;-56
2023/01/10 14:59:45;;;;;;;10.30;2.60;;;;;;;-0.58;44.55;101454.14;104924;1264;60010;-56
2023/01/10 15:02:23;;;;;;;15.70;2.00;;;;;;;-0.63;44.61;101458.70;105408;1258;71909;-57
2023/01/10 15:05:27;;;;;;;12.30;3.80;;;;;;;-0.66;44.56;101456.50;105232;1260;70724;-56
2023/01/10 15:07:54;;;;;;;8.40;1.60;;;;;;;-0.70;44.77;101451.73;105332;1258;65133;-56
2023/01/10 15:10:30;;;;;;;18.90;3.60;;;;;;;-0.72;44.73;101453.68;105443;1258;61528;-56
2023/01/10 15:12:59;;;;;;;18.90;4.10;;;;;;;-0.75;44.45;101461.64;105416;1257;60268;-55
2023/01/10 15:15:35;;;;;;;12.40;3.20;;;;;;;-0.77;44.42;101461.67;105351;1257;73053;-56
2023/01/10 15:18:21;;;;;;;14.70;2.50;;;;;;;-0.79;44.60;101462.57;105349;1257;71448;-56
2023/01/10 15:20:48;;;;;;;9.10;2.30;;;;;;;-0.79;44.44;101464.13;105395;1257;64972;-54
2023/01/10 15:23:15;;;;;;;7.50;2.00;;;;;;;-0.81;44.18;101470.02;105357;1257;61215;-54
2023/01/10 15:25:42;;;;;;;9.90;3.10;;;;;;;-0.82;44.35;101468.83;105418;1257;61308;-54
2023/01/10 15:28:14;;;;;;;6.30;2.60;;;;;;;-0.82;44.45;101470.55;105359;1262;73759;-55
2023/01/10 15:30:41;;;;;;;13.30;2.80;;;;;;;-0.81;44.38;101471.05;105470;1258;71562;-55
2023/01/10 15:33:12;;;;;;;14.80;3.00;;;;;;;-0.81;44.37;101469.66;105246;1263;73459;-55
2023/01/10 15:35:42;;;;;;;20.30;3.00;;;;;;;-0.80;44.28;101468.45;105546;1257;60564;-56
2023/01/10 15:38:19;;;;;;;14.10;2.90;;;;;;;-0.79;44.19;101465.33;105418;1256;61082;-55
2023/01/10 15:40:57;;;;;;;6.60;1.80;;;;;;;-0.80;44.10;101465.34;105415;1259;74038;-54
2023/01/10 15:43:26;;;;;;;10.80;2.30;;;;;;;-0.81;44.09;101465.71;105377;1258;69886;-55
2023/01/10 15:45:54;;;;;;;13.10;3.40;;;;;;;-0.82;43.89;101470.55;105395;1260;73221;-55
2023/01/10 15:48:43;;;;;;;10.50;1.80;;;;;;;-0.81;43.90;101473.29;105291;1258;59739;-54
2023/01/10 15:51:18;;;;;;;11.30;2.50;;;;;;;-0.81;43.95;101470.53;105529;1257;59647;-57
2023/01/10 15:53:59;;;;;;;12.70;2.60;;;;;;;-0.80;43.53;101471.73;105326;1258;74009;-56
2023/01/10 15:56:49;;;;;;;6.90;1.80;;;;;;;-0.80;43.58;101473.79;105290;1257;72386;-55
2023/01/10 16:13:27;;;;;;;8.70;1.70;;;;;;;-0.52;42.91;101471.25;105339;1267;604648;-49
2023/01/10 16:15:55;;;;;;;5.80;1.70;;;;;;;-0.22;42.15;101474.55;107043;1250;251596;-50
2023/01/10 16:18:22;;;;;;;7.10;2.80;;;;;;;-0.27;42.22;101477.40;107503;1244;61195;-49
2023/01/10 16:20:50;;;;;;;9.70;2.60;;;;;;;-0.32;42.34;101474.90;107552;1247;72975;-49